Portada
METAR-TAF:

METAR-TAF

Aeroports :

Tamworth, Austràlia

latitud: 31-05S, longitud: 150-50E, altitud: 410 m

Observació

L'informe es va fer fa 27 minuts, a les 20:00 UTC
Vent 4 kt del Sud/Sud-Est
Temperatura 4°C
Humitat 100%
Pressió 1020 hPa
Visibilitat 10 km o més

METAR: YSTW 132000Z AUTO 15004KT 9999 // NCD 04/04 Q1020

Hora: 06:27 (20:27 UTC)

Pronòstic

L'informe es va fer fa 3 hores i 5 minuts, a les 17:22 UTC
Pronòstic vàlid del 13 a les 18 UTC al 14 a les 12 UTC
Vent 3 kt amb direcció variable
Visibilitat 10 km o més
sense núvols per sota de 1500 mi sense presència de cumulonimbus.
A partir de les 14 a les 0000 UTC
Vent 12 kt del Oest/Nord-Oest
Visibilitat 10 km o més
sense núvols per sota de 1500 mi sense presència de cumulonimbus.
A partir de les 14 a les 0900 UTC
Vent 3 kt amb direcció variable
Visibilitat 10 km o més
sense núvols per sota de 1500 mi sense presència de cumulonimbus.

TAF: YSTW 131722Z 1318/1412 VRB03KT CAVOK FM140000 30012KT CAVOK FM140900 VRB03KT CAVOK

Observacions i pronòstics meteorològics de més de 4000 aeroports (METAR i TAF).

Les estacions disponibles són els punts grocs i vermells al mapa.

Posi el ratolí al punt desitjat per veure el nom de l'estació.

Feu clic per veure les observacions i els pronòstics meteorològics.

Per canviar el mapa: feu clic els botons verds amb una creu de color negre per apropar; al botó verd amb un guió per allunyar la imatge; o en les fletxes verdes per a mapes adjacents.


METAR-TAF: